Time;durP1;ratioP1;P1;durP2;ratioP2;P2;SDS_P1;SDS_P2;PMS_P1;PMS_P2;Temp;Humidity;BMP_temperature;BMP_pressure;BME280_temperature;BME280_humidity;BME280_pressure;Samples;Min_cycle;Max_cycle;Signal;HPM_P1;HPM_P2
2023/01/12 00:02:37;;;;;;;3.42;1.00;;;;;;;7.42;100.00;100514.94;6273287;28;20421;-74
2023/01/12 00:05:38;;;;;;;8.05;0.95;;;;;;;7.43;100.00;100525.31;6273074;28;20045;-74
2023/01/12 00:08:40;;;;;;;3.65;1.10;;;;;;;7.39;100.00;100523.75;6273226;28;20045;-74
2023/01/12 00:11:42;;;;;;;7.28;0.88;;;;;;;7.41;100.00;100503.63;6273180;28;20056;-74
2023/01/12 00:14:43;;;;;;;4.43;1.17;;;;;;;7.38;100.00;100506.38;6272865;28;20044;-74
2023/01/12 00:17:46;;;;;;;4.32;1.17;;;;;;;7.37;100.00;100508.16;6273212;28;20041;-74
2023/01/12 00:20:47;;;;;;;6.32;1.98;;;;;;;7.31;100.00;100510.16;6272669;28;20435;-74
2023/01/12 00:23:49;;;;;;;1.33;0.90;;;;;;;7.30;100.00;100506.69;6272815;28;20515;-74
2023/01/12 00:26:50;;;;;;;7.07;1.20;;;;;;;7.28;100.00;100505.09;6272896;28;20053;-74
2023/01/12 00:29:51;;;;;;;4.28;1.50;;;;;;;7.24;100.00;100514.81;6272717;28;20045;-74
2023/01/12 00:32:54;;;;;;;4.90;1.40;;;;;;;7.29;100.00;100510.22;6272751;28;20505;-74
2023/01/12 00:35:55;;;;;;;3.72;0.65;;;;;;;7.23;100.00;100507.06;6272341;28;20191;-74
2023/01/12 00:38:57;;;;;;;4.72;0.90;;;;;;;7.18;100.00;100506.41;6272693;28;20049;-74
2023/01/12 00:45:23;;;;;;;2.10;0.90;;;;;;;7.21;100.00;100507.09;6272483;28;20057;-74
2023/01/12 00:48:25;;;;;;;2.10;0.73;;;;;;;7.33;100.00;100529.25;6272088;28;20132;-74
2023/01/12 00:51:27;;;;;;;7.78;1.48;;;;;;;7.31;100.00;100515.38;6272302;28;20049;-74
2023/01/12 00:54:28;;;;;;;9.00;1.20;;;;;;;7.39;100.00;100497.59;6272161;28;20416;-73
2023/01/12 00:57:29;;;;;;;7.68;1.83;;;;;;;7.40;100.00;100488.84;6272046;28;20068;-73
2023/01/12 01:00:31;;;;;;;5.53;1.08;;;;;;;7.37;100.00;100495.06;6271858;28;20424;-74
2023/01/12 01:03:34;;;;;;;8.77;1.55;;;;;;;7.37;100.00;100500.28;6272091;28;20242;-74
2023/01/12 01:06:37;;;;;;;6.28;1.60;;;;;;;7.42;100.00;100499.25;6271799;28;20053;-74
2023/01/12 01:09:38;;;;;;;5.55;1.67;;;;;;;7.47;100.00;100494.66;6271708;28;20094;-74
2023/01/12 01:12:40;;;;;;;12.30;1.85;;;;;;;7.41;100.00;100508.88;6271746;28;20053;-73
2023/01/12 01:15:41;;;;;;;4.82;1.08;;;;;;;7.41;100.00;100508.03;6271574;28;20052;-74
2023/01/12 01:18:44;;;;;;;11.40;1.20;;;;;;;7.40;100.00;100511.53;6271788;28;20494;-74
2023/01/12 01:21:46;;;;;;;5.07;1.52;;;;;;;7.34;100.00;100502.19;6271617;28;20060;-74
2023/01/12 01:24:47;;;;;;;6.28;1.27;;;;;;;7.34;100.00;100502.19;6271529;28;20060;-73
2023/01/12 01:27:48;;;;;;;10.93;2.08;;;;;;;7.32;100.00;100490.97;6271505;28;20056;-73
2023/01/12 01:30:50;;;;;;;4.53;1.42;;;;;;;7.42;100.00;100499.25;6271516;28;20049;-75
2023/01/12 01:33:53;;;;;;;1.45;1.02;;;;;;;7.43;100.00;100499.16;6271360;28;20053;-74
2023/01/12 01:36:54;;;;;;;4.40;1.40;;;;;;;7.49;100.00;100493.66;6271859;28;20773;-74
2023/01/12 01:39:55;;;;;;;2.25;0.70;;;;;;;7.48;100.00;100494.59;6271252;28;20041;-74
2023/01/12 01:42:57;;;;;;;6.32;1.08;;;;;;;7.42;100.00;100487.03;6271344;28;20045;-74
2023/01/12 01:46:02;;;;;;;8.88;1.55;;;;;;;7.46;100.00;100496.44;6271204;28;20060;-74
2023/01/12 01:49:24;;;;;;;4.40;1.15;;;;;;;7.56;100.00;100500.31;6271207;28;20048;-74
2023/01/12 01:52:31;;;;;;;2.88;1.00;;;;;;;7.59;100.00;100491.50;6274955;28;20053;-74
2023/01/12 01:55:36;;;;;;;4.07;1.13;;;;;;;7.58;100.00;100480.16;6276308;28;20056;-73
2023/01/12 01:58:40;;;;;;;2.33;1.23;;;;;;;7.63;100.00;100493.91;6276526;28;20053;-73
2023/01/12 02:01:42;;;;;;;1.85;0.93;;;;;;;7.63;100.00;100496.53;6276183;28;20049;-74
2023/01/12 02:04:45;;;;;;;1.92;0.88;;;;;;;7.73;100.00;100490.88;6276127;28;20055;-73
2023/01/12 02:07:47;;;;;;;10.05;1.83;;;;;;;7.75;100.00;100489.88;6276030;28;20064;-73
2023/01/12 02:10:51;;;;;;;2.35;1.27;;;;;;;7.82;100.00;100475.59;6275920;28;20052;-73
2023/01/12 02:17:34;;;;;;;4.95;1.25;;;;;;;7.91;100.00;100476.94;6223665;28;20054;-74
2023/01/12 02:20:58;;;;;;;1.00;0.60;;;;;;;7.85;100.00;100474.59;6275787;28;20393;-74
2023/01/12 02:24:45;;;;;;;4.32;0.90;;;;;;;7.85;100.00;100462.38;6275524;28;20684;-74
2023/01/12 02:28:13;;;;;;;2.95;1.40;;;;;;;7.83;100.00;100473.84;6228380;28;20055;-74
2023/01/12 02:31:47;;;;;;;0.98;0.55;;;;;;;7.86;100.00;100471.09;6275687;28;20045;-74
2023/01/12 02:34:58;;;;;;;6.18;1.13;;;;;;;7.79;100.00;100477.50;6275149;28;20409;-74
2023/01/12 02:38:07;;;;;;;1.63;0.80;;;;;;;7.83;100.00;100453.75;6275547;28;20056;-74
2023/01/12 02:42:39;;;;;;;4.47;1.08;;;;;;;7.84;100.00;100460.69;6275184;28;20049;-74
2023/01/12 02:44:51;;;;;;;2.45;1.10;;;;;;;7.85;100.00;100451.91;6274789;28;20052;-74
2023/01/12 02:47:57;;;;;;;2.13;1.10;;;;;;;7.85;100.00;100451.06;6275498;28;20091;-74
2023/01/12 02:51:05;;;;;;;7.78;1.20;;;;;;;7.81;100.00;100455.59;6274996;28;20048;-73
2023/01/12 02:54:10;;;;;;;7.15;1.38;;;;;;;7.78;100.00;100445.28;6275260;28;20059;-73
2023/01/12 02:57:14;;;;;;;2.28;0.98;;;;;;;7.83;100.00;100442.44;6275034;28;20560;-73
2023/01/12 03:00:18;;;;;;;1.48;1.05;;;;;;;7.79;100.00;100436.50;6274846;28;20045;-73
2023/01/12 03:03:21;;;;;;;4.45;1.33;;;;;;;7.73;100.00;100436.81;6273599;28;20048;-73
2023/01/12 03:06:22;;;;;;;6.43;2.05;;;;;;;7.73;100.00;100438.56;6274760;28;20071;-74
2023/01/12 03:09:26;;;;;;;2.88;1.20;;;;;;;7.69;100.00;100423.94;6274744;28;20504;-73
2023/01/12 03:12:32;;;;;;;5.15;1.13;;;;;;;7.61;100.00;100426.91;6274522;28;20052;-74
2023/01/12 03:15:37;;;;;;;2.63;1.13;;;;;;;7.60;100.00;100430.44;6274406;28;20064;-73
2023/01/12 03:18:45;;;;;;;1.35;1.00;;;;;;;7.65;100.00;100425.84;6274539;28;20045;-74
2023/01/12 03:21:51;;;;;;;2.15;1.13;;;;;;;7.68;100.00;100417.84;6274708;28;20045;-74
2023/01/12 03:25:01;;;;;;;2.35;1.00;;;;;;;7.68;100.00;100411.78;6274087;28;20048;-74
2023/01/12 03:28:05;;;;;;;1.85;1.52;;;;;;;7.62;100.00;100405.91;6274390;28;20052;-74
2023/01/12 03:31:09;;;;;;;4.65;1.63;;;;;;;7.61;100.00;100406.81;6273946;28;20045;-73
2023/01/12 03:34:12;;;;;;;3.58;1.33;;;;;;;7.68;100.00;100411.78;6273955;28;20459;-74
2023/01/12 03:37:21;;;;;;;3.80;1.30;;;;;;;7.74;100.00;100409.72;6274206;28;20063;-74
2023/01/12 03:40:25;;;;;;;5.45;1.85;;;;;;;7.69;100.00;100397.78;6274190;28;20049;-73
2023/01/12 03:43:31;;;;;;;1.45;0.80;;;;;;;7.70;100.00;100389.84;6273912;28;20049;-73
2023/01/12 03:46:39;;;;;;;2.00;1.02;;;;;;;7.72;100.00;100389.78;6272713;28;20056;-73
2023/01/12 03:49:45;;;;;;;2.67;1.38;;;;;;;7.67;100.00;100399.59;6273845;28;20497;-73
2023/01/12 03:52:48;;;;;;;5.95;1.50;;;;;;;7.66;100.00;100390.06;6273646;28;20049;-74
2023/01/12 03:55:54;;;;;;;3.47;1.30;;;;;;;7.64;100.00;100392.78;6273575;28;20049;-73
2023/01/12 03:58:56;;;;;;;5.35;1.65;;;;;;;7.63;100.00;100399.78;6273424;28;20056;-73
2023/01/12 04:01:58;;;;;;;1.30;1.00;;;;;;;7.63;100.00;100391.06;6273580;28;20048;-74
2023/01/12 04:05:01;;;;;;;6.30;1.38;;;;;;;7.64;100.00;100384.91;6273566;28;20059;-74
2023/01/12 04:08:02;;;;;;;9.73;1.58;;;;;;;7.57;100.00;100378.28;6273540;28;20053;-74
2023/01/12 04:12:09;;;;;;;2.50;2.00;;;;;;;7.57;100.00;100378.28;6273098;28;20056;-74
2023/01/12 04:14:25;;;;;;;6.47;1.67;;;;;;;7.53;100.00;100367.09;6272306;28;20531;-73
2023/01/12 04:17:28;;;;;;;7.10;1.40;;;;;;;7.54;100.00;100367.94;6273046;28;20048;-74
2023/01/12 04:20:30;;;;;;;2.85;1.75;;;;;;;7.51;100.00;100373.34;6273160;28;20412;-74
2023/01/12 04:23:31;;;;;;;6.30;1.33;;;;;;;7.48;100.00;100357.78;6272868;28;20413;-73
2023/01/12 04:26:32;;;;;;;3.58;1.30;;;;;;;7.50;100.00;100358.56;6272959;28;20053;-74
2023/01/12 04:29:33;;;;;;;3.35;1.52;;;;;;;7.49;100.00;100349.84;6272853;28;20412;-74
2023/01/12 04:32:35;;;;;;;6.65;2.40;;;;;;;7.48;100.00;100349.94;6272645;28;20068;-74
2023/01/12 04:35:37;;;;;;;5.95;1.23;;;;;;;7.45;100.00;100345.72;6272602;28;20049;-74
2023/01/12 04:38:39;;;;;;;3.42;1.45;;;;;;;7.44;100.00;100333.53;6272609;28;20049;-73
2023/01/12 04:41:41;;;;;;;7.30;1.67;;;;;;;7.49;100.00;100328.09;6272541;28;20515;-74
2023/01/12 04:44:42;;;;;;;8.40;2.08;;;;;;;7.47;100.00;100319.50;6272023;28;20049;-74
2023/01/12 04:47:43;;;;;;;2.28;1.65;;;;;;;7.48;100.00;100318.56;6272378;28;20045;-73
2023/01/12 04:50:48;;;;;;;8.57;2.38;;;;;;;7.48;100.00;100305.50;6272074;28;20416;-74
2023/01/12 04:53:50;;;;;;;7.60;2.10;;;;;;;7.47;100.00;100309.88;6272278;28;20056;-74
2023/01/12 04:56:51;;;;;;;5.97;2.13;;;;;;;7.46;100.00;100302.97;6272329;28;20128;-74
2023/01/12 04:59:52;;;;;;;1.85;1.50;;;;;;;7.43;100.00;100299.66;6271968;28;20598;-74
2023/01/12 05:02:56;;;;;;;2.45;1.80;;;;;;;7.45;100.00;100295.16;6272287;28;20053;-74
2023/01/12 05:06:01;;;;;;;6.47;2.65;;;;;;;7.48;100.00;100292.41;6272024;28;20049;-74
2023/01/12 05:12:21;;;;;;;12.97;4.50;;;;;;;7.48;100.00;100285.44;6271824;28;20508;-74
2023/01/12 05:15:23;;;;;;;1.52;1.27;;;;;;;7.48;100.00;100277.56;6271734;28;20083;-74
2023/01/12 05:18:24;;;;;;;4.63;1.90;;;;;;;7.49;100.00;100271.41;6271817;28;20060;-74
2023/01/12 05:21:27;;;;;;;2.55;1.70;;;;;;;7.49;100.00;100270.59;6271824;28;20056;-74
2023/01/12 05:24:28;;;;;;;3.95;1.63;;;;;;;7.49;100.00;100265.34;6271548;28;20102;-74
2023/01/12 05:27:29;;;;;;;3.08;1.70;;;;;;;7.49;100.00;100250.50;6271039;28;20045;-74
2023/01/12 05:30:31;;;;;;;3.63;1.50;;;;;;;7.49;100.00;100253.13;6271322;28;20071;-74
2023/01/12 05:33:32;;;;;;;3.85;1.35;;;;;;;7.47;100.00;100243.69;6271911;28;20515;-74
2023/01/12 05:36:35;;;;;;;5.30;1.20;;;;;;;7.47;100.00;100239.28;6271303;28;20049;-74
2023/01/12 05:39:36;;;;;;;3.00;1.20;;;;;;;7.57;100.00;100232.69;6271638;28;20049;-74
2023/01/12 05:45:56;;;;;;;3.75;0.77;;;;;;;7.52;100.00;100218.16;6271190;28;20053;-73
2023/01/12 05:48:58;;;;;;;10.38;1.77;;;;;;;7.53;100.00;100219.84;6271288;28;20052;-74
2023/01/12 05:52:00;;;;;;;2.25;1.05;;;;;;;7.50;100.00;100215.63;6271306;28;20086;-74
2023/01/12 05:55:02;;;;;;;1.52;0.90;;;;;;;7.53;100.00;100212.00;6271489;28;20049;-74
2023/01/12 05:58:03;;;;;;;1.00;0.85;;;;;;;7.54;100.00;100198.00;6271413;28;20484;-74
2023/01/12 06:01:08;;;;;;;1.50;0.77;;;;;;;7.49;100.00;100192.16;6271250;28;20053;-74
2023/01/12 06:04:10;;;;;;;3.28;1.20;;;;;;;7.52;100.00;100185.00;6270954;28;20056;-74
2023/01/12 06:07:13;;;;;;;1.65;0.80;;;;;;;7.57;100.00;100169.94;6271304;28;20053;-74
2023/01/12 06:10:15;;;;;;;3.85;1.48;;;;;;;7.54;100.00;100171.84;6270911;28;20053;-74
2023/01/12 06:16:37;;;;;;;4.45;1.10;;;;;;;7.52;100.00;100165.88;6263689;28;20053;-73
2023/01/12 06:19:39;;;;;;;7.63;1.20;;;;;;;7.56;100.00;100159.56;6271031;28;20048;-73
2023/01/12 06:22:41;;;;;;;1.33;1.15;;;;;;;7.56;100.00;100155.19;6271047;28;20412;-74
2023/01/12 06:25:42;;;;;;;2.88;0.90;;;;;;;7.57;100.00;100156.00;6270944;28;20045;-74
2023/01/12 06:28:44;;;;;;;6.22;1.40;;;;;;;7.60;100.00;100137.56;6270945;28;20044;-73
2023/01/12 06:31:45;;;;;;;1.23;1.13;;;;;;;7.64;100.00;100141.72;6270956;28;20060;-74
2023/01/12 06:34:46;;;;;;;8.07;2.05;;;;;;;7.65;100.00;100134.72;6270904;28;20076;-74
2023/01/12 06:37:49;;;;;;;4.18;1.20;;;;;;;7.61;100.00;100134.88;6273458;28;20052;-74
2023/01/12 06:40:51;;;;;;;6.45;1.48;;;;;;;7.65;100.00;100138.16;6275531;28;20503;-74
2023/01/12 06:43:52;;;;;;;1.52;0.90;;;;;;;7.67;100.00;100127.63;6274989;28;20049;-74
2023/01/12 06:46:54;;;;;;;7.47;1.20;;;;;;;7.66;100.00;100133.78;6275402;28;20458;-74
2023/01/12 06:49:55;;;;;;;4.03;0.95;;;;;;;7.68;100.00;100129.34;6274917;28;20056;-74
2023/01/12 06:53:00;;;;;;;4.97;1.00;;;;;;;7.67;100.00;100115.38;6275523;28;20075;-73
2023/01/12 06:56:01;;;;;;;5.57;0.70;;;;;;;7.66;100.00;100115.47;6274770;28;20053;-74
2023/01/12 06:59:02;;;;;;;1.77;0.63;;;;;;;7.61;100.00;100108.72;6275140;28;20053;-74
2023/01/12 07:02:04;;;;;;;2.95;0.52;;;;;;;7.58;100.00;100095.78;6274144;28;20405;-74
2023/01/12 07:05:06;;;;;;;2.05;0.60;;;;;;;7.57;100.00;100106.34;6274550;28;20147;-74
2023/01/12 07:08:09;;;;;;;3.58;0.60;;;;;;;7.54;100.00;100094.28;6274274;28;20044;-74
2023/01/12 07:11:13;;;;;;;2.13;0.70;;;;;;;7.52;100.00;100080.44;6274507;28;20068;-74
2023/01/12 07:14:15;;;;;;;1.30;0.43;;;;;;;7.54;100.00;100091.66;6274401;28;20056;-74
2023/01/12 07:17:16;;;;;;;0.77;0.55;;;;;;;7.54;100.00;100072.50;6274735;28;20056;-74
2023/01/12 07:20:18;;;;;;;0.82;0.50;;;;;;;7.51;100.00;100067.44;6274344;28;20132;-74
2023/01/12 07:23:20;;;;;;;1.05;0.60;;;;;;;7.46;100.00;100048.53;6274334;28;20087;-74
2023/01/12 07:26:23;;;;;;;0.38;0.28;;;;;;;7.46;100.00;100035.47;6274192;28;20055;-73
2023/01/12 07:29:24;;;;;;;1.05;0.50;;;;;;;7.41;100.00;100040.94;6274041;28;20060;-74
2023/01/12 07:32:28;;;;;;;0.40;0.22;;;;;;;7.39;100.00;100032.31;6274422;28;20056;-74
2023/01/12 07:35:29;;;;;;;0.30;0.30;;;;;;;7.33;100.00;100033.47;6273840;28;20045;-74
2023/01/12 07:38:32;;;;;;;0.20;0.17;;;;;;;7.32;100.00;100023.13;6274322;28;20048;-74
2023/01/12 07:44:53;;;;;;;;;;;;;;;7.30;100.00;100002.25;6270142;28;20416;-74
2023/01/12 07:47:54;;;;;;;0.43;0.30;;;;;;;7.29;100.00;100010.19;6271988;28;19921;-75
2023/01/12 07:50:58;;;;;;;0.30;0.20;;;;;;;7.30;100.00;100006.66;6271671;28;20045;-74
2023/01/12 07:54:01;;;;;;;1.65;0.73;;;;;;;7.30;100.00;100002.25;6271887;28;20050;-74
2023/01/12 07:57:02;;;;;;;2.85;0.20;;;;;;;7.29;100.00;99999.75;6271882;28;20048;-74
2023/01/12 08:00:05;;;;;;;1.40;0.30;;;;;;;7.29;100.00;100002.34;6271818;28;20476;-74
2023/01/12 08:03:08;;;;;;;1.83;0.35;;;;;;;7.27;100.00;99988.53;6272055;28;20082;-74
2023/01/12 08:06:09;;;;;;;0.10;0.10;;;;;;;7.23;100.00;99985.22;6271576;28;20052;-74
2023/01/12 08:09:12;;;;;;;0.30;0.20;;;;;;;7.30;100.00;99990.97;6269020;28;20048;-74
2023/01/12 08:12:13;;;;;;;1.05;0.30;;;;;;;7.28;100.00;99993.66;6271496;28;20040;-74
2023/01/12 08:15:15;;;;;;;0.20;0.20;;;;;;;7.30;100.00;99994.41;6269964;28;20067;-74
2023/01/12 08:18:21;;;;;;;0.20;0.20;;;;;;;7.37;100.00;99995.81;6269727;28;20056;-74
2023/01/12 08:21:26;;;;;;;2.05;0.43;;;;;;;7.38;100.00;99994.03;6270686;28;20045;-74
2023/01/12 08:24:35;;;;;;;0.17;0.17;;;;;;;7.40;100.00;99978.25;6265387;28;20068;-74
2023/01/12 08:27:39;;;;;;;3.28;0.40;;;;;;;7.40;100.00;99996.56;6261476;28;20049;-74
2023/01/12 08:30:41;;;;;;;0.00;0.00;;;;;;;7.40;100.00;99984.31;6272792;28;20052;-74
2023/01/12 08:33:43;;;;;;;0.47;0.22;;;;;;;7.44;100.00;99992.84;6260319;28;20517;-74
2023/01/12 08:36:44;;;;;;;0.20;0.20;;;;;;;7.47;100.00;99988.31;6248221;28;20421;-74
2023/01/12 08:39:48;;;;;;;1.85;0.40;;;;;;;7.48;100.00;99987.38;6247739;28;20060;-74
2023/01/12 08:42:49;;;;;;;1.45;0.43;;;;;;;7.49;100.00;99985.63;6247977;28;20489;-74
2023/01/12 08:45:51;;;;;;;2.15;0.30;;;;;;;7.50;100.00;99998.63;6247586;28;20083;-75
2023/01/12 08:48:52;;;;;;;5.18;0.40;;;;;;;7.56;100.00;99977.38;6247613;28;20046;-76
2023/01/12 08:51:55;;;;;;;0.63;0.28;;;;;;;7.61;100.00;99991.03;6268929;28;20459;-75
2023/01/12 08:54:57;;;;;;;0.22;0.20;;;;;;;7.59;100.00;99985.06;6271950;28;20056;-74
2023/01/12 08:57:59;;;;;;;0.30;0.30;;;;;;;7.57;100.00;100005.19;6272499;28;20055;-74
2023/01/12 09:01:07;;;;;;;1.65;0.40;;;;;;;7.63;100.00;99991.81;6271864;28;20056;-75
2023/01/12 09:04:08;;;;;;;0.30;0.30;;;;;;;7.61;100.00;99985.81;6272084;28;20497;-74
2023/01/12 09:07:11;;;;;;;3.97;0.30;;;;;;;7.66;100.00;99992.56;6271999;28;20413;-74
2023/01/12 09:10:15;;;;;;;0.82;0.50;;;;;;;7.66;100.00;99990.81;6271916;28;20044;-74
2023/01/12 09:13:16;;;;;;;1.95;0.50;;;;;;;7.69;100.00;100003.72;6271892;28;20053;-76
2023/01/12 09:16:19;;;;;;;2.45;0.30;;;;;;;7.72;100.00;99987.88;6271996;28;20052;-75
2023/01/12 09:19:20;;;;;;;0.52;0.40;;;;;;;7.70;100.00;99988.88;6271829;28;20040;-76
2023/01/12 09:22:22;;;;;;;0.40;0.22;;;;;;;7.76;100.00;100006.84;6271729;28;20049;-75
2023/01/12 09:25:25;;;;;;;0.20;0.20;;;;;;;7.76;100.00;100015.53;6271708;28;20049;-75
2023/01/12 09:28:26;;;;;;;0.38;0.35;;;;;;;7.73;100.00;100012.25;6271515;28;20056;-75
2023/01/12 09:31:29;;;;;;;0.35;0.30;;;;;;;7.72;100.00;100000.09;6271488;28;20053;-75
2023/01/12 09:34:30;;;;;;;1.83;0.30;;;;;;;7.73;100.00;100010.47;6271146;28;20056;-75
2023/01/12 09:37:32;;;;;;;0.30;0.30;;;;;;;7.70;100.00;100026.31;6271555;28;20428;-74
2023/01/12 09:40:35;;;;;;;0.30;0.30;;;;;;;7.71;100.00;100014.09;6271421;28;20056;-75
2023/01/12 09:46:58;;;;;;;0.77;0.30;;;;;;;7.69;100.00;100021.19;6271717;28;20520;-75
2023/01/12 09:50:03;;;;;;;0.55;0.20;;;;;;;7.72;100.00;100014.03;6271139;28;20045;-75
2023/01/12 09:53:11;;;;;;;0.28;0.28;;;;;;;7.72;100.00;100027.09;6271358;28;20048;-75
2023/01/12 09:56:21;;;;;;;0.75;0.30;;;;;;;7.73;100.00;100031.41;6271422;28;20054;-77
2023/01/12 09:59:37;;;;;;;0.50;0.17;;;;;;;7.76;100.00;100041.69;6270992;28;20053;-74
2023/01/12 10:02:43;;;;;;;0.20;0.20;;;;;;;7.77;100.00;100034.72;6271267;28;20045;-75
2023/01/12 10:05:48;;;;;;;1.20;0.38;;;;;;;7.81;100.00;100052.78;6270870;28;20053;-74
2023/01/12 10:08:51;;;;;;;0.38;0.35;;;;;;;7.84;100.00;100022.97;6271014;28;20053;-75
2023/01/12 10:12:04;;;;;;;2.50;0.50;;;;;;;7.89;100.00;100052.34;6271838;28;20052;-74
2023/01/12 10:15:24;;;;;;;1.23;0.90;;;;;;;7.95;100.00;100040.69;6276105;28;20048;-73
2023/01/12 10:18:31;;;;;;;0.55;0.55;;;;;;;7.93;100.00;100043.41;6275903;28;20049;-75
2023/01/12 10:21:32;;;;;;;0.65;0.65;;;;;;;7.97;100.00;100034.47;6276035;28;20052;-75
2023/01/12 10:24:34;;;;;;;0.50;0.50;;;;;;;8.02;100.00;100026.38;6275405;28;20515;-74
2023/01/12 10:27:42;;;;;;;0.50;0.50;;;;;;;8.01;100.00;100024.69;6275704;28;20052;-75
2023/01/12 10:30:44;;;;;;;0.85;0.60;;;;;;;8.06;100.00;100033.97;6275377;28;20408;-74
2023/01/12 10:34:01;;;;;;;1.15;0.52;;;;;;;8.08;100.00;100047.84;6275523;28;20060;-75
2023/01/12 10:37:09;;;;;;;0.63;0.63;;;;;;;8.14;100.00;100023.09;6275571;28;20053;-74
2023/01/12 10:40:23;;;;;;;1.67;1.00;;;;;;;8.19;100.00;100022.84;6275516;28;20072;-75
2023/01/12 10:43:31;;;;;;;1.10;0.80;;;;;;;8.24;100.00;100024.28;6275331;28;20074;-74
2023/01/12 10:46:34;;;;;;;2.25;0.80;;;;;;;8.29;100.00;100031.88;6275090;28;20492;-74
2023/01/12 10:49:37;;;;;;;1.15;0.80;;;;;;;8.31;100.00;100036.09;6275110;28;20053;-75
2023/01/12 10:52:40;;;;;;;0.70;0.70;;;;;;;8.33;100.00;100038.63;6275113;28;20106;-75
2023/01/12 10:55:43;;;;;;;3.80;1.25;;;;;;;8.43;100.00;100025.91;6274798;28;20056;-75
2023/01/12 10:58:51;;;;;;;0.77;0.60;;;;;;;8.45;100.00;100031.88;6275322;28;20060;-74
2023/01/12 11:02:12;;;;;;;1.73;0.80;;;;;;;8.56;100.00;100032.97;6274864;28;20056;-74
2023/01/12 11:05:29;;;;;;;0.70;0.70;;;;;;;8.59;100.00;100040.66;6274664;28;20056;-74
2023/01/12 11:08:31;;;;;;;1.38;0.73;;;;;;;8.66;100.00;100035.06;6274917;28;20179;-75
2023/01/12 11:11:33;;;;;;;2.88;0.80;;;;;;;8.70;100.00;100044.44;6269758;28;20409;-76
2023/01/12 11:14:37;;;;;;;1.02;0.80;;;;;;;8.70;100.00;100040.06;6273247;28;20167;-75
2023/01/12 11:17:58;;;;;;;2.15;1.05;;;;;;;8.73;100.00;100039.03;6274414;28;20440;-74
2023/01/12 11:21:05;;;;;;;4.97;0.90;;;;;;;8.80;100.00;100024.66;6271847;28;20055;-75
2023/01/12 11:24:12;;;;;;;2.03;1.00;;;;;;;8.86;100.00;100029.56;6253922;28;20045;-75
2023/01/12 11:27:20;;;;;;;1.63;0.98;;;;;;;8.84;100.00;100045.34;6269946;28;20055;-75
2023/01/12 11:30:26;;;;;;;1.17;0.70;;;;;;;8.94;100.00;100037.78;6274120;28;20417;-75
2023/01/12 11:33:34;;;;;;;3.05;0.80;;;;;;;8.99;100.00;100038.34;6274104;28;20048;-75
2023/01/12 11:36:41;;;;;;;0.98;0.88;;;;;;;9.03;100.00;100029.38;6274004;28;20049;-74
2023/01/12 11:39:44;;;;;;;0.77;0.70;;;;;;;9.04;100.00;100036.34;6273955;28;20056;-74
2023/01/12 11:46:23;;;;;;;0.52;0.52;;;;;;;9.06;100.00;100041.47;6269101;28;20053;-75
2023/01/12 11:49:33;;;;;;;1.33;0.90;;;;;;;9.06;100.00;100036.25;6273815;28;20049;-74
2023/01/12 11:52:35;;;;;;;1.45;0.80;;;;;;;9.09;100.00;100046.56;6273791;28;20045;-75
2023/01/12 11:55:50;;;;;;;0.80;0.80;;;;;;;9.09;100.00;100041.31;6273507;28;20049;-75
2023/01/12 11:59:01;;;;;;;0.88;0.88;;;;;;;9.10;100.00;100050.88;6274049;28;20049;-75
2023/01/12 12:02:21;;;;;;;0.82;0.70;;;;;;;9.15;100.00;100046.19;6273275;28;20052;-75
2023/01/12 12:05:37;;;;;;;4.97;0.82;;;;;;;9.21;100.00;100034.50;6273570;28;20060;-75
2023/01/12 12:08:49;;;;;;;0.73;0.60;;;;;;;9.21;100.00;100044.97;6273387;28;20057;-74
2023/01/12 12:11:57;;;;;;;1.38;0.82;;;;;;;9.16;100.00;100045.25;6273105;28;20041;-75
2023/01/12 12:15:12;;;;;;;1.05;0.88;;;;;;;9.19;100.00;100046.84;6273149;28;20045;-75
2023/01/12 12:18:30;;;;;;;1.77;0.98;;;;;;;9.25;100.00;100042.09;6273512;28;20056;-75
2023/01/12 12:21:45;;;;;;;0.80;0.60;;;;;;;9.27;100.00;100031.53;6273108;28;20045;-74
2023/01/12 12:25:01;;;;;;;0.52;0.52;;;;;;;9.26;100.00;100032.44;6272817;28;20048;-74
2023/01/12 12:28:17;;;;;;;0.50;0.50;;;;;;;9.25;100.00;100031.59;6273018;28;20056;-75
2023/01/12 12:31:32;;;;;;;0.75;0.63;;;;;;;9.25;100.00;100033.38;6272344;28;20467;-74
2023/01/12 12:35:01;;;;;;;0.75;0.70;;;;;;;9.30;100.00;100029.53;6272489;28;20056;-75
2023/01/12 12:38:12;;;;;;;0.47;0.45;;;;;;;9.33;100.00;100058.22;6272588;28;20053;-74
2023/01/12 12:48:15;;;;;;;0.77;0.75;;;;;;;9.35;100.00;100045.84;6272436;28;20500;-76
2023/01/12 12:51:18;;;;;;;0.57;0.57;;;;;;;9.43;100.00;100029.66;6272489;28;20052;-75
2023/01/12 12:54:21;;;;;;;0.60;0.60;;;;;;;9.43;100.00;100027.03;6272109;28;20056;-75
2023/01/12 12:57:24;;;;;;;0.50;0.50;;;;;;;9.46;100.00;100031.28;6272560;28;20056;-75
2023/01/12 13:00:39;;;;;;;0.40;0.40;;;;;;;9.47;100.00;100030.31;6272112;28;20064;-75
2023/01/12 13:03:48;;;;;;;0.70;0.45;;;;;;;9.42;100.00;100033.22;6272405;28;20049;-75
2023/01/12 13:06:51;;;;;;;0.65;0.65;;;;;;;9.44;100.00;100047.06;6272212;28;20049;-75
2023/01/12 13:10:04;;;;;;;0.30;0.30;;;;;;;9.47;100.00;100048.69;6271988;28;20048;-75
2023/01/12 13:13:24;;;;;;;0.50;0.50;;;;;;;9.47;100.00;100035.56;6271967;28;20044;-75
2023/01/12 13:16:47;;;;;;;0.50;0.50;;;;;;;9.44;100.00;100047.06;6270499;28;20049;-75
2023/01/12 13:19:50;;;;;;;0.82;0.65;;;;;;;9.45;100.00;100040.03;6271598;28;20460;-75
2023/01/12 13:22:53;;;;;;;2.83;0.50;;;;;;;9.43;100.00;100050.63;6271858;28;20045;-75
2023/01/12 13:25:57;;;;;;;0.38;0.38;;;;;;;9.40;100.00;100059.56;6271368;28;20053;-76
2023/01/12 13:29:35;;;;;;;0.50;0.50;;;;;;;9.43;100.00;100049.78;6271891;28;20045;-75
2023/01/12 13:32:43;;;;;;;0.30;0.30;;;;;;;9.42;100.00;100051.56;6272029;28;20041;-75
2023/01/12 13:36:00;;;;;;;0.50;0.50;;;;;;;9.44;100.00;100052.31;6271416;28;20527;-75
2023/01/12 13:39:13;;;;;;;0.30;0.30;;;;;;;9.47;100.00;100054.78;6271456;28;20578;-75
2023/01/12 13:45:49;;;;;;;0.70;0.50;;;;;;;9.44;100.00;100047.06;6260164;28;20049;-75
2023/01/12 13:48:53;;;;;;;0.45;0.45;;;;;;;9.47;100.00;100052.16;6271125;28;20045;-75
2023/01/12 13:52:00;;;;;;;0.50;0.50;;;;;;;9.42;100.00;100067.31;6269979;28;20651;-76
2023/01/12 13:55:17;;;;;;;0.40;0.40;;;;;;;9.39;100.00;100070.94;6269013;28;20045;-76
2023/01/12 13:58:19;;;;;;;0.82;0.63;;;;;;;9.38;100.00;100068.44;6271406;28;20037;-75
2023/01/12 14:01:26;;;;;;;1.70;0.63;;;;;;;9.33;100.00;100065.25;6271334;28;20484;-76
2023/01/12 14:04:58;;;;;;;1.27;0.60;;;;;;;9.36;100.00;100067.69;6271292;28;20052;-76
2023/01/12 14:08:13;;;;;;;1.05;0.73;;;;;;;9.34;100.00;100064.28;6270527;28;20056;-75
2023/01/12 14:11:34;;;;;;;0.47;0.47;;;;;;;9.34;100.00;100072.16;6261285;28;20171;-76
2023/01/12 14:18:21;;;;;;;0.65;0.63;;;;;;;9.40;100.00;100082.28;6267442;28;20467;-76
2023/01/12 14:21:25;;;;;;;0.40;0.40;;;;;;;9.44;100.00;100089.03;6269545;28;20053;-75
2023/01/12 14:24:27;;;;;;;0.80;0.60;;;;;;;9.45;100.00;100087.25;6270964;28;20055;-75
2023/01/12 14:27:29;;;;;;;0.70;0.57;;;;;;;9.45;100.00;100076.75;6270856;28;20056;-75
2023/01/12 14:30:33;;;;;;;0.30;0.30;;;;;;;9.46;100.00;100084.56;6270607;28;20049;-76
2023/01/12 14:33:39;;;;;;;0.70;0.70;;;;;;;9.48;100.00;100076.59;6270613;28;20048;-75
2023/01/12 14:36:42;;;;;;;1.50;0.80;;;;;;;9.51;100.00;100076.41;6270918;28;20425;-76
2023/01/12 14:39:46;;;;;;;1.10;0.90;;;;;;;9.45;100.00;100095.13;6270779;28;20052;-77
2023/01/12 14:46:25;;;;;;;1.17;0.57;;;;;;;9.54;100.00;100078.88;6324860;23;20420;-73
2023/01/12 14:49:28;;;;;;;0.95;0.60;;;;;;;9.50;100.00;100079.97;6270810;28;20052;-72
2023/01/12 14:52:31;;;;;;;0.68;0.60;;;;;;;9.46;100.00;100074.06;6270367;28;20056;-72
2023/01/12 14:55:38;;;;;;;1.40;0.88;;;;;;;9.49;100.00;100084.34;6270442;28;20440;-73
2023/01/12 14:58:41;;;;;;;2.40;0.90;;;;;;;9.49;100.00;100078.28;6272556;28;20130;-72
2023/01/12 15:01:43;;;;;;;0.50;0.50;;;;;;;9.45;100.00;100075.00;6274641;28;20041;-73
2023/01/12 15:04:51;;;;;;;0.77;0.70;;;;;;;9.46;100.00;100066.19;6274671;28;20061;-73
2023/01/12 15:07:55;;;;;;;0.75;0.70;;;;;;;9.46;100.00;100070.59;6274686;28;20052;-72
2023/01/12 15:10:58;;;;;;;0.70;0.60;;;;;;;9.49;100.00;100060.75;6274678;28;20067;-72